sensor_id;sensor_type;location;lat;lon;timestamp;P1;durP1;ratioP1;P2;durP2;ratioP2
74528;SDS011;63009;52.584;5.932;2023-12-14T00:01:28;13.27;;;5.78;;
74528;SDS011;63009;52.584;5.932;2023-12-14T00:03:53;13.70;;;5.72;;
74528;SDS011;63009;52.584;5.932;2023-12-14T00:06:18;12.97;;;5.77;;
74528;SDS011;63009;52.584;5.932;2023-12-14T00:08:44;13.75;;;6.38;;
74528;SDS011;63009;52.584;5.932;2023-12-14T00:11:10;13.60;;;6.38;;
74528;SDS011;63009;52.584;5.932;2023-12-14T00:13:36;15.98;;;7.03;;
74528;SDS011;63009;52.584;5.932;2023-12-14T00:16:02;12.77;;;5.60;;
74528;SDS011;63009;52.584;5.932;2023-12-14T00:18:28;13.77;;;5.43;;
74528;SDS011;63009;52.584;5.932;2023-12-14T00:20:53;12.68;;;5.95;;
74528;SDS011;63009;52.584;5.932;2023-12-14T00:23:19;13.23;;;6.40;;
74528;SDS011;63009;52.584;5.932;2023-12-14T00:25:45;13.60;;;5.97;;
74528;SDS011;63009;52.584;5.932;2023-12-14T00:28:10;13.25;;;6.25;;
74528;SDS011;63009;52.584;5.932;2023-12-14T00:30:36;12.40;;;5.90;;
74528;SDS011;63009;52.584;5.932;2023-12-14T00:33:01;13.07;;;6.03;;
74528;SDS011;63009;52.584;5.932;2023-12-14T00:35:27;13.65;;;6.15;;
74528;SDS011;63009;52.584;5.932;2023-12-14T00:37:52;16.17;;;6.43;;
74528;SDS011;63009;52.584;5.932;2023-12-14T00:40:17;13.73;;;5.95;;
74528;SDS011;63009;52.584;5.932;2023-12-14T00:42:43;13.55;;;6.28;;
74528;SDS011;63009;52.584;5.932;2023-12-14T00:45:08;14.40;;;6.32;;
74528;SDS011;63009;52.584;5.932;2023-12-14T00:47:34;12.07;;;5.15;;
74528;SDS011;63009;52.584;5.932;2023-12-14T00:49:59;13.13;;;6.27;;
74528;SDS011;63009;52.584;5.932;2023-12-14T00:52:25;13.15;;;5.75;;
74528;SDS011;63009;52.584;5.932;2023-12-14T00:54:50;13.07;;;5.97;;
74528;SDS011;63009;52.584;5.932;2023-12-14T00:57:15;12.10;;;6.00;;
74528;SDS011;63009;52.584;5.932;2023-12-14T00:59:41;12.85;;;5.95;;
74528;SDS011;63009;52.584;5.932;2023-12-14T01:02:06;15.30;;;5.85;;
74528;SDS011;63009;52.584;5.932;2023-12-14T01:04:32;13.88;;;6.45;;
74528;SDS011;63009;52.584;5.932;2023-12-14T01:06:57;13.15;;;5.07;;
74528;SDS011;63009;52.584;5.932;2023-12-14T01:09:22;14.38;;;6.70;;
74528;SDS011;63009;52.584;5.932;2023-12-14T01:11:48;13.45;;;5.95;;
74528;SDS011;63009;52.584;5.932;2023-12-14T01:14:13;12.20;;;5.30;;
74528;SDS011;63009;52.584;5.932;2023-12-14T01:16:39;13.05;;;5.80;;
74528;SDS011;63009;52.584;5.932;2023-12-14T01:19:04;14.05;;;5.68;;
74528;SDS011;63009;52.584;5.932;2023-12-14T01:21:31;13.68;;;5.95;;
74528;SDS011;63009;52.584;5.932;2023-12-14T01:23:56;13.43;;;6.57;;
74528;SDS011;63009;52.584;5.932;2023-12-14T01:26:22;12.60;;;5.83;;
74528;SDS011;63009;52.584;5.932;2023-12-14T01:28:47;13.75;;;5.43;;
74528;SDS011;63009;52.584;5.932;2023-12-14T01:31:12;14.02;;;6.07;;
74528;SDS011;63009;52.584;5.932;2023-12-14T01:33:38;11.23;;;5.63;;
74528;SDS011;63009;52.584;5.932;2023-12-14T01:36:03;12.65;;;5.47;;
74528;SDS011;63009;52.584;5.932;2023-12-14T01:38:28;12.40;;;5.95;;
74528;SDS011;63009;52.584;5.932;2023-12-14T01:40:54;12.30;;;5.28;;
74528;SDS011;63009;52.584;5.932;2023-12-14T01:43:21;12.88;;;5.35;;
74528;SDS011;63009;52.584;5.932;2023-12-14T01:45:47;11.27;;;5.07;;
74528;SDS011;63009;52.584;5.932;2023-12-14T01:48:12;12.93;;;5.10;;
74528;SDS011;63009;52.584;5.932;2023-12-14T01:50:37;15.73;;;6.63;;
74528;SDS011;63009;52.584;5.932;2023-12-14T01:53:03;13.02;;;5.72;;
74528;SDS011;63009;52.584;5.932;2023-12-14T01:55:28;14.05;;;6.07;;
74528;SDS011;63009;52.584;5.932;2023-12-14T01:57:54;15.18;;;6.43;;
74528;SDS011;63009;52.584;5.932;2023-12-14T02:00:36;15.18;;;5.72;;
74528;SDS011;63009;52.584;5.932;2023-12-14T02:03:06;13.02;;;6.75;;
74528;SDS011;63009;52.584;5.932;2023-12-14T02:05:31;12.67;;;6.30;;
74528;SDS011;63009;52.584;5.932;2023-12-14T02:07:57;12.13;;;4.97;;
74528;SDS011;63009;52.584;5.932;2023-12-14T02:10:22;14.07;;;6.15;;
74528;SDS011;63009;52.584;5.932;2023-12-14T02:12:48;13.13;;;5.78;;
74528;SDS011;63009;52.584;5.932;2023-12-14T02:15:13;13.57;;;5.93;;
74528;SDS011;63009;52.584;5.932;2023-12-14T02:17:38;13.30;;;5.70;;
74528;SDS011;63009;52.584;5.932;2023-12-14T02:20:04;13.60;;;5.20;;
74528;SDS011;63009;52.584;5.932;2023-12-14T02:25:18;13.10;;;5.53;;
74528;SDS011;63009;52.584;5.932;2023-12-14T02:27:44;15.98;;;5.90;;
74528;SDS011;63009;52.584;5.932;2023-12-14T02:30:10;13.85;;;6.20;;
74528;SDS011;63009;52.584;5.932;2023-12-14T02:32:37;13.07;;;5.30;;
74528;SDS011;63009;52.584;5.932;2023-12-14T02:35:03;14.68;;;6.63;;
74528;SDS011;63009;52.584;5.932;2023-12-14T02:37:29;12.23;;;5.25;;
74528;SDS011;63009;52.584;5.932;2023-12-14T02:39:54;13.40;;;5.95;;
74528;SDS011;63009;52.584;5.932;2023-12-14T02:42:20;12.77;;;5.80;;
74528;SDS011;63009;52.584;5.932;2023-12-14T02:44:46;15.50;;;5.37;;
74528;SDS011;63009;52.584;5.932;2023-12-14T02:47:11;13.50;;;6.28;;
74528;SDS011;63009;52.584;5.932;2023-12-14T02:49:36;13.75;;;6.43;;
74528;SDS011;63009;52.584;5.932;2023-12-14T02:52:02;14.57;;;5.50;;
74528;SDS011;63009;52.584;5.932;2023-12-14T02:54:27;15.05;;;6.25;;
74528;SDS011;63009;52.584;5.932;2023-12-14T02:56:53;13.13;;;5.77;;
74528;SDS011;63009;52.584;5.932;2023-12-14T02:59:18;12.15;;;5.35;;
74528;SDS011;63009;52.584;5.932;2023-12-14T03:01:43;13.73;;;6.10;;
74528;SDS011;63009;52.584;5.932;2023-12-14T03:04:09;13.43;;;5.75;;
74528;SDS011;63009;52.584;5.932;2023-12-14T03:06:34;15.43;;;5.50;;
74528;SDS011;63009;52.584;5.932;2023-12-14T03:08:59;13.37;;;6.17;;
74528;SDS011;63009;52.584;5.932;2023-12-14T03:11:25;14.90;;;6.28;;
74528;SDS011;63009;52.584;5.932;2023-12-14T03:13:51;14.05;;;6.15;;
74528;SDS011;63009;52.584;5.932;2023-12-14T03:16:17;11.75;;;5.45;;
74528;SDS011;63009;52.584;5.932;2023-12-14T03:18:43;14.20;;;5.68;;
74528;SDS011;63009;52.584;5.932;2023-12-14T03:21:09;13.40;;;5.93;;
74528;SDS011;63009;52.584;5.932;2023-12-14T03:23:34;14.60;;;6.35;;
74528;SDS011;63009;52.584;5.932;2023-12-14T03:26:00;11.73;;;5.00;;
74528;SDS011;63009;52.584;5.932;2023-12-14T03:28:26;14.68;;;5.90;;
74528;SDS011;63009;52.584;5.932;2023-12-14T03:30:51;12.48;;;5.13;;
74528;SDS011;63009;52.584;5.932;2023-12-14T03:33:17;13.98;;;5.53;;
74528;SDS011;63009;52.584;5.932;2023-12-14T03:35:42;13.90;;;5.18;;
74528;SDS011;63009;52.584;5.932;2023-12-14T03:38:08;12.43;;;5.20;;
74528;SDS011;63009;52.584;5.932;2023-12-14T03:40:34;13.27;;;5.03;;
74528;SDS011;63009;52.584;5.932;2023-12-14T03:42:59;14.48;;;5.35;;
74528;SDS011;63009;52.584;5.932;2023-12-14T03:45:25;11.30;;;4.87;;
74528;SDS011;63009;52.584;5.932;2023-12-14T03:47:50;12.43;;;5.70;;
74528;SDS011;63009;52.584;5.932;2023-12-14T03:50:15;12.90;;;6.10;;
74528;SDS011;63009;52.584;5.932;2023-12-14T03:52:41;12.77;;;5.63;;
74528;SDS011;63009;52.584;5.932;2023-12-14T03:55:06;12.23;;;5.00;;
74528;SDS011;63009;52.584;5.932;2023-12-14T03:57:32;10.13;;;4.10;;
74528;SDS011;63009;52.584;5.932;2023-12-14T03:59:57;12.63;;;4.68;;
74528;SDS011;63009;52.584;5.932;2023-12-14T04:02:22;10.70;;;4.20;;
74528;SDS011;63009;52.584;5.932;2023-12-14T04:04:48;9.00;;;3.57;;
74528;SDS011;63009;52.584;5.932;2023-12-14T04:07:13;8.77;;;3.75;;
74528;SDS011;63009;52.584;5.932;2023-12-14T04:09:38;7.95;;;3.22;;
74528;SDS011;63009;52.584;5.932;2023-12-14T04:12:04;9.53;;;3.30;;
74528;SDS011;63009;52.584;5.932;2023-12-14T04:14:30;9.50;;;3.60;;
74528;SDS011;63009;52.584;5.932;2023-12-14T04:16:55;8.40;;;3.38;;
74528;SDS011;63009;52.584;5.932;2023-12-14T04:19:20;9.68;;;3.47;;
74528;SDS011;63009;52.584;5.932;2023-12-14T04:21:47;11.20;;;4.00;;
74528;SDS011;63009;52.584;5.932;2023-12-14T04:24:12;9.38;;;3.65;;
74528;SDS011;63009;52.584;5.932;2023-12-14T04:26:38;7.33;;;2.60;;
74528;SDS011;63009;52.584;5.932;2023-12-14T04:29:04;9.23;;;3.33;;
74528;SDS011;63009;52.584;5.932;2023-12-14T04:31:31;10.13;;;3.90;;
74528;SDS011;63009;52.584;5.932;2023-12-14T04:33:56;10.18;;;4.20;;
74528;SDS011;63009;52.584;5.932;2023-12-14T04:36:22;8.82;;;2.97;;
74528;SDS011;63009;52.584;5.932;2023-12-14T04:38:47;11.05;;;3.83;;
74528;SDS011;63009;52.584;5.932;2023-12-14T04:41:13;8.93;;;3.88;;
74528;SDS011;63009;52.584;5.932;2023-12-14T04:43:39;11.05;;;4.55;;
74528;SDS011;63009;52.584;5.932;2023-12-14T04:46:04;8.60;;;3.50;;
74528;SDS011;63009;52.584;5.932;2023-12-14T04:48:31;8.93;;;3.30;;
74528;SDS011;63009;52.584;5.932;2023-12-14T04:50:56;10.27;;;4.07;;
74528;SDS011;63009;52.584;5.932;2023-12-14T04:53:22;9.55;;;4.20;;
74528;SDS011;63009;52.584;5.932;2023-12-14T04:55:47;11.15;;;4.57;;
74528;SDS011;63009;52.584;5.932;2023-12-14T04:58:12;12.07;;;5.17;;
74528;SDS011;63009;52.584;5.932;2023-12-14T05:00:38;11.10;;;4.67;;
74528;SDS011;63009;52.584;5.932;2023-12-14T05:03:03;10.40;;;4.87;;
74528;SDS011;63009;52.584;5.932;2023-12-14T05:05:28;11.18;;;4.30;;
74528;SDS011;63009;52.584;5.932;2023-12-14T05:07:54;13.18;;;4.75;;
74528;SDS011;63009;52.584;5.932;2023-12-14T05:10:19;10.65;;;4.07;;
74528;SDS011;63009;52.584;5.932;2023-12-14T05:12:45;12.02;;;4.43;;
74528;SDS011;63009;52.584;5.932;2023-12-14T05:15:10;10.20;;;4.20;;
74528;SDS011;63009;52.584;5.932;2023-12-14T05:17:36;9.82;;;4.45;;
74528;SDS011;63009;52.584;5.932;2023-12-14T05:20:02;10.40;;;4.40;;
74528;SDS011;63009;52.584;5.932;2023-12-14T05:22:33;10.40;;;4.50;;
74528;SDS011;63009;52.584;5.932;2023-12-14T05:24:58;11.30;;;4.90;;
74528;SDS011;63009;52.584;5.932;2023-12-14T05:27:24;11.80;;;4.85;;
74528;SDS011;63009;52.584;5.932;2023-12-14T05:29:50;11.57;;;5.07;;
74528;SDS011;63009;52.584;5.932;2023-12-14T05:32:15;12.32;;;4.82;;
74528;SDS011;63009;52.584;5.932;2023-12-14T05:34:40;11.70;;;5.07;;
74528;SDS011;63009;52.584;5.932;2023-12-14T05:37:05;13.93;;;5.60;;
74528;SDS011;63009;52.584;5.932;2023-12-14T05:39:31;13.40;;;5.00;;
74528;SDS011;63009;52.584;5.932;2023-12-14T05:41:56;13.47;;;5.20;;
74528;SDS011;63009;52.584;5.932;2023-12-14T05:44:21;11.57;;;5.03;;
74528;SDS011;63009;52.584;5.932;2023-12-14T05:46:47;12.25;;;5.43;;
74528;SDS011;63009;52.584;5.932;2023-12-14T05:49:13;12.18;;;5.05;;
74528;SDS011;63009;52.584;5.932;2023-12-14T05:51:38;11.60;;;5.22;;
74528;SDS011;63009;52.584;5.932;2023-12-14T05:54:04;12.82;;;5.82;;
74528;SDS011;63009;52.584;5.932;2023-12-14T05:56:30;12.30;;;5.13;;
74528;SDS011;63009;52.584;5.932;2023-12-14T05:58:55;10.95;;;4.85;;
74528;SDS011;63009;52.584;5.932;2023-12-14T06:01:21;14.30;;;5.38;;
74528;SDS011;63009;52.584;5.932;2023-12-14T06:03:48;13.45;;;5.38;;
74528;SDS011;63009;52.584;5.932;2023-12-14T06:06:13;13.70;;;5.72;;
74528;SDS011;63009;52.584;5.932;2023-12-14T06:08:39;14.70;;;5.75;;
74528;SDS011;63009;52.584;5.932;2023-12-14T06:11:05;11.57;;;5.10;;
74528;SDS011;63009;52.584;5.932;2023-12-14T06:13:33;14.50;;;5.38;;
74528;SDS011;63009;52.584;5.932;2023-12-14T06:16:02;13.50;;;5.68;;
74528;SDS011;63009;52.584;5.932;2023-12-14T06:18:28;12.32;;;5.07;;
74528;SDS011;63009;52.584;5.932;2023-12-14T06:20:53;15.55;;;5.50;;
74528;SDS011;63009;52.584;5.932;2023-12-14T06:23:18;12.57;;;5.23;;
74528;SDS011;63009;52.584;5.932;2023-12-14T06:25:44;15.80;;;6.35;;
74528;SDS011;63009;52.584;5.932;2023-12-14T06:28:09;13.32;;;5.60;;
74528;SDS011;63009;52.584;5.932;2023-12-14T06:30:34;15.77;;;5.63;;
74528;SDS011;63009;52.584;5.932;2023-12-14T06:33:00;16.27;;;6.43;;
74528;SDS011;63009;52.584;5.932;2023-12-14T06:35:25;14.90;;;5.50;;
74528;SDS011;63009;52.584;5.932;2023-12-14T06:37:50;13.35;;;4.78;;
74528;SDS011;63009;52.584;5.932;2023-12-14T06:40:16;11.57;;;5.10;;
74528;SDS011;63009;52.584;5.932;2023-12-14T06:42:41;13.90;;;5.25;;
74528;SDS011;63009;52.584;5.932;2023-12-14T06:45:07;11.52;;;5.13;;
74528;SDS011;63009;52.584;5.932;2023-12-14T06:47:33;16.40;;;5.30;;
74528;SDS011;63009;52.584;5.932;2023-12-14T06:49:58;12.80;;;5.40;;
74528;SDS011;63009;52.584;5.932;2023-12-14T06:52:24;12.57;;;5.05;;
74528;SDS011;63009;52.584;5.932;2023-12-14T06:54:49;11.63;;;5.00;;
74528;SDS011;63009;52.584;5.932;2023-12-14T06:57:14;12.80;;;5.45;;
74528;SDS011;63009;52.584;5.932;2023-12-14T06:59:40;14.25;;;5.43;;
74528;SDS011;63009;52.584;5.932;2023-12-14T07:02:05;12.53;;;5.57;;
74528;SDS011;63009;52.584;5.932;2023-12-14T07:04:31;12.73;;;4.82;;
74528;SDS011;63009;52.584;5.932;2023-12-14T07:06:56;10.82;;;4.25;;
74528;SDS011;63009;52.584;5.932;2023-12-14T07:09:21;11.10;;;5.10;;
74528;SDS011;63009;52.584;5.932;2023-12-14T07:11:47;10.73;;;4.95;;
74528;SDS011;63009;52.584;5.932;2023-12-14T07:14:12;12.87;;;5.50;;
74528;SDS011;63009;52.584;5.932;2023-12-14T07:16:40;11.82;;;6.60;;
74528;SDS011;63009;52.584;5.932;2023-12-14T07:19:06;12.38;;;5.53;;
74528;SDS011;63009;52.584;5.932;2023-12-14T07:21:31;12.77;;;5.05;;
74528;SDS011;63009;52.584;5.932;2023-12-14T07:23:57;12.50;;;5.35;;
74528;SDS011;63009;52.584;5.932;2023-12-14T07:26:23;11.65;;;4.57;;
74528;SDS011;63009;52.584;5.932;2023-12-14T07:28:48;12.18;;;5.22;;
74528;SDS011;63009;52.584;5.932;2023-12-14T07:31:13;10.82;;;4.55;;
74528;SDS011;63009;52.584;5.932;2023-12-14T07:33:39;10.70;;;4.75;;
74528;SDS011;63009;52.584;5.932;2023-12-14T07:36:04;11.73;;;4.80;;
74528;SDS011;63009;52.584;5.932;2023-12-14T07:38:30;10.93;;;4.57;;
74528;SDS011;63009;52.584;5.932;2023-12-14T07:40:56;11.57;;;5.20;;
74528;SDS011;63009;52.584;5.932;2023-12-14T07:43:22;10.60;;;4.40;;
74528;SDS011;63009;52.584;5.932;2023-12-14T07:45:47;12.68;;;4.88;;
74528;SDS011;63009;52.584;5.932;2023-12-14T07:48:13;13.65;;;5.65;;
74528;SDS011;63009;52.584;5.932;2023-12-14T07:50:39;12.13;;;5.00;;
74528;SDS011;63009;52.584;5.932;2023-12-14T07:53:04;13.98;;;4.95;;
74528;SDS011;63009;52.584;5.932;2023-12-14T07:55:30;14.43;;;5.72;;
74528;SDS011;63009;52.584;5.932;2023-12-14T07:57:55;11.73;;;4.72;;
74528;SDS011;63009;52.584;5.932;2023-12-14T08:00:21;15.23;;;5.80;;
74528;SDS011;63009;52.584;5.932;2023-12-14T08:02:46;11.35;;;4.63;;
74528;SDS011;63009;52.584;5.932;2023-12-14T08:05:12;12.20;;;5.47;;
74528;SDS011;63009;52.584;5.932;2023-12-14T08:07:37;11.45;;;5.03;;
74528;SDS011;63009;52.584;5.932;2023-12-14T08:10:02;11.68;;;4.95;;
74528;SDS011;63009;52.584;5.932;2023-12-14T08:12:28;10.07;;;4.40;;
74528;SDS011;63009;52.584;5.932;2023-12-14T08:14:56;10.15;;;4.47;;
74528;SDS011;63009;52.584;5.932;2023-12-14T08:19:47;11.67;;;5.33;;
74528;SDS011;63009;52.584;5.932;2023-12-14T08:22:12;13.33;;;5.30;;
74528;SDS011;63009;52.584;5.932;2023-12-14T08:24:40;12.05;;;4.95;;
74528;SDS011;63009;52.584;5.932;2023-12-14T08:27:06;11.40;;;4.95;;
74528;SDS011;63009;52.584;5.932;2023-12-14T08:29:32;12.70;;;5.35;;
74528;SDS011;63009;52.584;5.932;2023-12-14T08:31:57;12.32;;;4.95;;
74528;SDS011;63009;52.584;5.932;2023-12-14T08:34:27;12.45;;;5.15;;
74528;SDS011;63009;52.584;5.932;2023-12-14T08:36:52;12.48;;;5.32;;
74528;SDS011;63009;52.584;5.932;2023-12-14T08:39:18;12.38;;;5.20;;
74528;SDS011;63009;52.584;5.932;2023-12-14T08:41:43;11.98;;;4.68;;
74528;SDS011;63009;52.584;5.932;2023-12-14T08:44:10;16.27;;;5.38;;
74528;SDS011;63009;52.584;5.932;2023-12-14T08:46:42;13.30;;;5.18;;
74528;SDS011;63009;52.584;5.932;2023-12-14T08:49:09;12.60;;;5.25;;
74528;SDS011;63009;52.584;5.932;2023-12-14T08:51:36;14.25;;;5.88;;
74528;SDS011;63009;52.584;5.932;2023-12-14T08:54:01;12.23;;;5.15;;
74528;SDS011;63009;52.584;5.932;2023-12-14T08:56:26;13.88;;;5.90;;
74528;SDS011;63009;52.584;5.932;2023-12-14T08:58:52;15.68;;;6.03;;
74528;SDS011;63009;52.584;5.932;2023-12-14T09:01:21;14.05;;;5.57;;
74528;SDS011;63009;52.584;5.932;2023-12-14T09:03:47;14.82;;;6.28;;
74528;SDS011;63009;52.584;5.932;2023-12-14T09:06:12;13.13;;;5.55;;
74528;SDS011;63009;52.584;5.932;2023-12-14T09:08:39;15.43;;;5.97;;
74528;SDS011;63009;52.584;5.932;2023-12-14T09:11:05;15.23;;;5.57;;
74528;SDS011;63009;52.584;5.932;2023-12-14T09:13:30;17.65;;;6.20;;
74528;SDS011;63009;52.584;5.932;2023-12-14T09:15:55;14.68;;;5.65;;
74528;SDS011;63009;52.584;5.932;2023-12-14T09:18:21;15.50;;;6.00;;
74528;SDS011;63009;52.584;5.932;2023-12-14T09:20:48;14.93;;;5.93;;
74528;SDS011;63009;52.584;5.932;2023-12-14T09:23:16;16.58;;;5.88;;
74528;SDS011;63009;52.584;5.932;2023-12-14T09:25:43;14.63;;;6.32;;
74528;SDS011;63009;52.584;5.932;2023-12-14T09:28:09;17.77;;;6.30;;
74528;SDS011;63009;52.584;5.932;2023-12-14T09:30:34;17.38;;;6.05;;
74528;SDS011;63009;52.584;5.932;2023-12-14T09:32:59;18.17;;;6.53;;
74528;SDS011;63009;52.584;5.932;2023-12-14T09:35:25;13.87;;;6.63;;
74528;SDS011;63009;52.584;5.932;2023-12-14T09:37:50;16.52;;;5.68;;
74528;SDS011;63009;52.584;5.932;2023-12-14T09:40:17;16.20;;;6.32;;
74528;SDS011;63009;52.584;5.932;2023-12-14T09:42:43;16.23;;;6.75;;
74528;SDS011;63009;52.584;5.932;2023-12-14T09:45:09;17.63;;;8.50;;
74528;SDS011;63009;52.584;5.932;2023-12-14T09:47:36;14.20;;;6.25;;
74528;SDS011;63009;52.584;5.932;2023-12-14T09:50:02;13.90;;;6.30;;
74528;SDS011;63009;52.584;5.932;2023-12-14T09:52:28;13.50;;;5.75;;
74528;SDS011;63009;52.584;5.932;2023-12-14T09:54:54;15.52;;;6.53;;
74528;SDS011;63009;52.584;5.932;2023-12-14T09:57:19;18.23;;;6.65;;
74528;SDS011;63009;52.584;5.932;2023-12-14T09:59:51;17.83;;;7.75;;
74528;SDS011;63009;52.584;5.932;2023-12-14T10:02:18;14.13;;;6.30;;
74528;SDS011;63009;52.584;5.932;2023-12-14T10:04:43;16.33;;;6.03;;
74528;SDS011;63009;52.584;5.932;2023-12-14T10:07:08;15.68;;;5.90;;
74528;SDS011;63009;52.584;5.932;2023-12-14T10:09:34;15.77;;;6.53;;
74528;SDS011;63009;52.584;5.932;2023-12-14T10:12:05;19.35;;;5.88;;
74528;SDS011;63009;52.584;5.932;2023-12-14T10:14:33;15.68;;;6.95;;
74528;SDS011;63009;52.584;5.932;2023-12-14T10:17:13;13.05;;;5.85;;
74528;SDS011;63009;52.584;5.932;2023-12-14T10:19:43;14.60;;;6.55;;
74528;SDS011;63009;52.584;5.932;2023-12-14T10:22:09;15.45;;;6.45;;
74528;SDS011;63009;52.584;5.932;2023-12-14T10:24:35;16.70;;;6.13;;
74528;SDS011;63009;52.584;5.932;2023-12-14T10:27:04;14.13;;;6.40;;
74528;SDS011;63009;52.584;5.932;2023-12-14T10:29:32;14.75;;;5.85;;
74528;SDS011;63009;52.584;5.932;2023-12-14T10:31:59;17.73;;;6.15;;
74528;SDS011;63009;52.584;5.932;2023-12-14T10:34:24;15.07;;;6.65;;
74528;SDS011;63009;52.584;5.932;2023-12-14T10:36:50;14.57;;;5.97;;
74528;SDS011;63009;52.584;5.932;2023-12-14T10:39:16;15.68;;;6.60;;
74528;SDS011;63009;52.584;5.932;2023-12-14T10:41:45;14.63;;;5.75;;
74528;SDS011;63009;52.584;5.932;2023-12-14T10:44:13;16.25;;;5.97;;
74528;SDS011;63009;52.584;5.932;2023-12-14T10:46:39;15.43;;;6.25;;
74528;SDS011;63009;52.584;5.932;2023-12-14T10:49:07;16.58;;;5.88;;
74528;SDS011;63009;52.584;5.932;2023-12-14T10:51:33;14.65;;;5.95;;
74528;SDS011;63009;52.584;5.932;2023-12-14T10:54:00;14.00;;;6.10;;
74528;SDS011;63009;52.584;5.932;2023-12-14T10:56:25;15.30;;;6.43;;
74528;SDS011;63009;52.584;5.932;2023-12-14T10:58:52;13.60;;;5.72;;
74528;SDS011;63009;52.584;5.932;2023-12-14T11:01:22;13.63;;;5.97;;
74528;SDS011;63009;52.584;5.932;2023-12-14T11:03:50;13.98;;;5.20;;
74528;SDS011;63009;52.584;5.932;2023-12-14T11:08:55;16.77;;;6.07;;
74528;SDS011;63009;52.584;5.932;2023-12-14T11:11:28;15.98;;;5.72;;
74528;SDS011;63009;52.584;5.932;2023-12-14T11:13:54;16.33;;;7.07;;
74528;SDS011;63009;52.584;5.932;2023-12-14T11:16:21;14.38;;;6.25;;
74528;SDS011;63009;52.584;5.932;2023-12-14T11:21:47;13.25;;;5.85;;
74528;SDS011;63009;52.584;5.932;2023-12-14T11:24:13;17.02;;;7.65;;
74528;SDS011;63009;52.584;5.932;2023-12-14T11:26:39;12.40;;;6.45;;
74528;SDS011;63009;52.584;5.932;2023-12-14T11:29:06;15.25;;;6.20;;
74528;SDS011;63009;52.584;5.932;2023-12-14T11:31:31;12.95;;;5.43;;
74528;SDS011;63009;52.584;5.932;2023-12-14T11:33:58;15.43;;;5.90;;
74528;SDS011;63009;52.584;5.932;2023-12-14T11:36:25;15.43;;;5.38;;
74528;SDS011;63009;52.584;5.932;2023-12-14T11:38:51;14.65;;;6.32;;
74528;SDS011;63009;52.584;5.932;2023-12-14T11:41:18;15.77;;;6.93;;
74528;SDS011;63009;52.584;5.932;2023-12-14T11:43:45;12.65;;;5.18;;
74528;SDS011;63009;52.584;5.932;2023-12-14T11:46:10;13.35;;;5.35;;
74528;SDS011;63009;52.584;5.932;2023-12-14T11:48:36;14.32;;;5.55;;
74528;SDS011;63009;52.584;5.932;2023-12-14T11:51:02;12.43;;;5.30;;
74528;SDS011;63009;52.584;5.932;2023-12-14T11:53:29;11.57;;;4.82;;
74528;SDS011;63009;52.584;5.932;2023-12-14T11:55:54;11.43;;;4.85;;
74528;SDS011;63009;52.584;5.932;2023-12-14T11:58:20;11.60;;;5.40;;
74528;SDS011;63009;52.584;5.932;2023-12-14T12:00:45;14.05;;;6.07;;
74528;SDS011;63009;52.584;5.932;2023-12-14T12:03:13;16.65;;;6.88;;
74528;SDS011;63009;52.584;5.932;2023-12-14T12:05:41;13.15;;;5.68;;
74528;SDS011;63009;52.584;5.932;2023-12-14T12:08:12;12.93;;;5.10;;
74528;SDS011;63009;52.584;5.932;2023-12-14T12:10:38;12.68;;;5.18;;
74528;SDS011;63009;52.584;5.932;2023-12-14T12:13:06;16.90;;;6.18;;
74528;SDS011;63009;52.584;5.932;2023-12-14T12:15:32;12.85;;;5.03;;
74528;SDS011;63009;52.584;5.932;2023-12-14T12:20:27;11.45;;;4.47;;
74528;SDS011;63009;52.584;5.932;2023-12-14T12:22:52;11.68;;;4.70;;
74528;SDS011;63009;52.584;5.932;2023-12-14T12:25:17;13.13;;;5.18;;
74528;SDS011;63009;52.584;5.932;2023-12-14T12:27:43;13.82;;;5.28;;
74528;SDS011;63009;52.584;5.932;2023-12-14T12:30:09;11.13;;;3.75;;
74528;SDS011;63009;52.584;5.932;2023-12-14T12:32:37;11.27;;;4.35;;
74528;SDS011;63009;52.584;5.932;2023-12-14T12:35:02;9.57;;;4.33;;
74528;SDS011;63009;52.584;5.932;2023-12-14T12:37:28;9.23;;;4.03;;
74528;SDS011;63009;52.584;5.932;2023-12-14T12:39:54;9.48;;;4.25;;
74528;SDS011;63009;52.584;5.932;2023-12-14T12:42:19;11.40;;;4.60;;
74528;SDS011;63009;52.584;5.932;2023-12-14T12:44:46;11.10;;;4.53;;
74528;SDS011;63009;52.584;5.932;2023-12-14T12:47:12;10.32;;;4.90;;
74528;SDS011;63009;52.584;5.932;2023-12-14T12:49:37;9.52;;;4.20;;
74528;SDS011;63009;52.584;5.932;2023-12-14T12:52:03;10.88;;;4.65;;
74528;SDS011;63009;52.584;5.932;2023-12-14T12:54:30;12.50;;;5.40;;
74528;SDS011;63009;52.584;5.932;2023-12-14T12:56:57;10.82;;;4.47;;
74528;SDS011;63009;52.584;5.932;2023-12-14T12:59:23;9.27;;;4.00;;
74528;SDS011;63009;52.584;5.932;2023-12-14T13:01:48;11.48;;;5.43;;
74528;SDS011;63009;52.584;5.932;2023-12-14T13:04:20;10.90;;;4.20;;
74528;SDS011;63009;52.584;5.932;2023-12-14T13:06:47;12.40;;;5.00;;
74528;SDS011;63009;52.584;5.932;2023-12-14T13:09:16;13.13;;;5.35;;
74528;SDS011;63009;52.584;5.932;2023-12-14T13:11:44;11.55;;;4.75;;
74528;SDS011;63009;52.584;5.932;2023-12-14T13:16:36;11.50;;;5.15;;
74528;SDS011;63009;52.584;5.932;2023-12-14T13:19:03;12.60;;;4.57;;
74528;SDS011;63009;52.584;5.932;2023-12-14T13:21:32;10.40;;;4.88;;
74528;SDS011;63009;52.584;5.932;2023-12-14T13:24:00;11.68;;;5.07;;
74528;SDS011;63009;52.584;5.932;2023-12-14T13:26:29;10.93;;;5.40;;
74528;SDS011;63009;52.584;5.932;2023-12-14T13:28:54;11.25;;;4.55;;
74528;SDS011;63009;52.584;5.932;2023-12-14T13:31:20;11.75;;;5.20;;
74528;SDS011;63009;52.584;5.932;2023-12-14T13:33:46;10.45;;;4.65;;
74528;SDS011;63009;52.584;5.932;2023-12-14T13:36:12;11.38;;;4.60;;
74528;SDS011;63009;52.584;5.932;2023-12-14T13:38:40;13.25;;;6.22;;
74528;SDS011;63009;52.584;5.932;2023-12-14T13:41:06;12.02;;;4.80;;
74528;SDS011;63009;52.584;5.932;2023-12-14T13:43:32;11.13;;;4.38;;
74528;SDS011;63009;52.584;5.932;2023-12-14T13:45:57;11.07;;;4.87;;
74528;SDS011;63009;52.584;5.932;2023-12-14T13:48:26;9.68;;;3.92;;
74528;SDS011;63009;52.584;5.932;2023-12-14T13:50:55;10.95;;;4.60;;
74528;SDS011;63009;52.584;5.932;2023-12-14T13:53:21;10.18;;;4.13;;
74528;SDS011;63009;52.584;5.932;2023-12-14T13:55:47;9.98;;;4.30;;
74528;SDS011;63009;52.584;5.932;2023-12-14T13:58:14;10.15;;;4.30;;
74528;SDS011;63009;52.584;5.932;2023-12-14T14:00:40;11.10;;;4.70;;
74528;SDS011;63009;52.584;5.932;2023-12-14T14:03:05;10.95;;;3.72;;
74528;SDS011;63009;52.584;5.932;2023-12-14T14:05:31;11.25;;;4.07;;
74528;SDS011;63009;52.584;5.932;2023-12-14T14:07:57;11.60;;;4.35;;
74528;SDS011;63009;52.584;5.932;2023-12-14T14:10:22;12.25;;;4.63;;
74528;SDS011;63009;52.584;5.932;2023-12-14T14:12:48;10.77;;;4.65;;
74528;SDS011;63009;52.584;5.932;2023-12-14T14:15:13;11.23;;;4.82;;
74528;SDS011;63009;52.584;5.932;2023-12-14T14:17:39;11.18;;;4.38;;
74528;SDS011;63009;52.584;5.932;2023-12-14T14:20:04;10.63;;;3.88;;
74528;SDS011;63009;52.584;5.932;2023-12-14T14:22:31;9.73;;;4.07;;
74528;SDS011;63009;52.584;5.932;2023-12-14T14:24:57;12.50;;;4.50;;
74528;SDS011;63009;52.584;5.932;2023-12-14T14:27:22;11.13;;;5.07;;
74528;SDS011;63009;52.584;5.932;2023-12-14T14:29:49;11.27;;;5.13;;
74528;SDS011;63009;52.584;5.932;2023-12-14T14:32:15;14.55;;;5.43;;
74528;SDS011;63009;52.584;5.932;2023-12-14T14:34:40;13.25;;;5.05;;
74528;SDS011;63009;52.584;5.932;2023-12-14T14:37:07;10.80;;;4.57;;
74528;SDS011;63009;52.584;5.932;2023-12-14T14:39:32;13.23;;;4.50;;
74528;SDS011;63009;52.584;5.932;2023-12-14T14:41:57;12.93;;;4.63;;
74528;SDS011;63009;52.584;5.932;2023-12-14T14:44:23;9.68;;;4.00;;